sensor_id;sensor_type;location;lat;lon;timestamp;temperature;humidity
13798;DHT22;6970;51.340;3.240;2023-05-02T00:02:24;13.60;99.90
13798;DHT22;6970;51.340;3.240;2023-05-02T00:04:51;13.60;99.90
13798;DHT22;6970;51.340;3.240;2023-05-02T00:07:19;13.60;99.90
13798;DHT22;6970;51.340;3.240;2023-05-02T00:09:46;13.60;99.90
13798;DHT22;6970;51.340;3.240;2023-05-02T00:12:13;13.60;99.90
13798;DHT22;6970;51.340;3.240;2023-05-02T00:14:40;13.60;99.90
13798;DHT22;6970;51.340;3.240;2023-05-02T00:17:07;13.60;99.90
13798;DHT22;6970;51.340;3.240;2023-05-02T00:19:37;13.60;99.90
13798;DHT22;6970;51.340;3.240;2023-05-02T00:22:05;13.50;99.90
13798;DHT22;6970;51.340;3.240;2023-05-02T00:24:32;13.60;99.90
13798;DHT22;6970;51.340;3.240;2023-05-02T00:27:00;13.60;99.90
13798;DHT22;6970;51.340;3.240;2023-05-02T00:29:27;13.60;99.90
13798;DHT22;6970;51.340;3.240;2023-05-02T00:31:54;13.60;99.90
13798;DHT22;6970;51.340;3.240;2023-05-02T00:34:21;13.50;99.90
13798;DHT22;6970;51.340;3.240;2023-05-02T00:36:48;13.50;99.90
13798;DHT22;6970;51.340;3.240;2023-05-02T00:39:15;13.50;99.90
13798;DHT22;6970;51.340;3.240;2023-05-02T00:41:42;13.40;99.90
13798;DHT22;6970;51.340;3.240;2023-05-02T00:44:09;13.40;99.90
13798;DHT22;6970;51.340;3.240;2023-05-02T00:46:36;13.40;99.90
13798;DHT22;6970;51.340;3.240;2023-05-02T00:49:03;13.30;99.90
13798;DHT22;6970;51.340;3.240;2023-05-02T00:51:32;13.30;99.90
13798;DHT22;6970;51.340;3.240;2023-05-02T00:54:00;13.20;99.90
13798;DHT22;6970;51.340;3.240;2023-05-02T00:56:27;13.20;99.90
13798;DHT22;6970;51.340;3.240;2023-05-02T00:58:54;13.20;99.90
13798;DHT22;6970;51.340;3.240;2023-05-02T01:15:13;12.80;99.90
13798;DHT22;6970;51.340;3.240;2023-05-02T01:17:43;12.80;99.90
13798;DHT22;6970;51.340;3.240;2023-05-02T01:20:16;12.80;99.90
13798;DHT22;6970;51.340;3.240;2023-05-02T01:22:48;12.70;99.90
13798;DHT22;6970;51.340;3.240;2023-05-02T01:25:18;12.70;99.90
13798;DHT22;6970;51.340;3.240;2023-05-02T01:28:04;12.70;99.90
13798;DHT22;6970;51.340;3.240;2023-05-02T01:30:37;12.60;99.90
13798;DHT22;6970;51.340;3.240;2023-05-02T01:33:07;12.60;99.90
13798;DHT22;6970;51.340;3.240;2023-05-02T01:35:36;12.50;99.90
13798;DHT22;6970;51.340;3.240;2023-05-02T01:38:05;12.50;99.90
13798;DHT22;6970;51.340;3.240;2023-05-02T01:40:33;12.50;99.90
13798;DHT22;6970;51.340;3.240;2023-05-02T01:43:01;12.40;99.90
13798;DHT22;6970;51.340;3.240;2023-05-02T01:45:34;12.40;99.90
13798;DHT22;6970;51.340;3.240;2023-05-02T01:48:02;12.30;99.90
13798;DHT22;6970;51.340;3.240;2023-05-02T01:50:31;12.30;99.90
13798;DHT22;6970;51.340;3.240;2023-05-02T01:53:02;12.20;99.90
13798;DHT22;6970;51.340;3.240;2023-05-02T01:55:32;12.10;99.90
13798;DHT22;6970;51.340;3.240;2023-05-02T01:58:02;12.10;99.90
13798;DHT22;6970;51.340;3.240;2023-05-02T02:00:31;12.10;99.90
13798;DHT22;6970;51.340;3.240;2023-05-02T02:03:00;12.10;99.90
13798;DHT22;6970;51.340;3.240;2023-05-02T02:05:28;12.10;99.90
13798;DHT22;6970;51.340;3.240;2023-05-02T02:07:55;12.10;99.90
13798;DHT22;6970;51.340;3.240;2023-05-02T02:10:25;12.00;99.90
13798;DHT22;6970;51.340;3.240;2023-05-02T02:13:02;12.00;99.90
13798;DHT22;6970;51.340;3.240;2023-05-02T02:15:33;11.90;99.90
13798;DHT22;6970;51.340;3.240;2023-05-02T02:18:02;11.90;99.90
13798;DHT22;6970;51.340;3.240;2023-05-02T02:20:31;11.90;99.90
13798;DHT22;6970;51.340;3.240;2023-05-02T02:23:03;11.90;99.90
13798;DHT22;6970;51.340;3.240;2023-05-02T02:25:31;11.80;99.90
13798;DHT22;6970;51.340;3.240;2023-05-02T02:28:00;11.90;99.90
13798;DHT22;6970;51.340;3.240;2023-05-02T02:30:27;11.90;99.90
13798;DHT22;6970;51.340;3.240;2023-05-02T02:32:54;11.90;99.90
13798;DHT22;6970;51.340;3.240;2023-05-02T02:35:22;11.80;99.90
13798;DHT22;6970;51.340;3.240;2023-05-02T02:38:49;11.80;99.90
13798;DHT22;6970;51.340;3.240;2023-05-02T02:44:27;11.70;99.90
13798;DHT22;6970;51.340;3.240;2023-05-02T02:47:10;11.70;99.90
13798;DHT22;6970;51.340;3.240;2023-05-02T02:52:55;11.70;99.90
13798;DHT22;6970;51.340;3.240;2023-05-02T02:55:44;11.60;99.90
13798;DHT22;6970;51.340;3.240;2023-05-02T03:01:02;11.60;99.90
13798;DHT22;6970;51.340;3.240;2023-05-02T03:03:31;11.60;99.90
13798;DHT22;6970;51.340;3.240;2023-05-02T03:05:59;11.60;99.90
13798;DHT22;6970;51.340;3.240;2023-05-02T03:08:26;11.60;99.90
13798;DHT22;6970;51.340;3.240;2023-05-02T03:10:53;11.60;99.90
13798;DHT22;6970;51.340;3.240;2023-05-02T03:13:20;11.60;99.90
13798;DHT22;6970;51.340;3.240;2023-05-02T03:18:18;11.60;99.90
13798;DHT22;6970;51.340;3.240;2023-05-02T03:20:45;11.60;99.90
13798;DHT22;6970;51.340;3.240;2023-05-02T03:23:12;11.60;99.90
13798;DHT22;6970;51.340;3.240;2023-05-02T03:25:39;11.60;99.90
13798;DHT22;6970;51.340;3.240;2023-05-02T03:28:06;11.60;99.90
13798;DHT22;6970;51.340;3.240;2023-05-02T03:30:33;11.50;99.90
13798;DHT22;6970;51.340;3.240;2023-05-02T03:33:01;11.50;99.90
13798;DHT22;6970;51.340;3.240;2023-05-02T03:35:30;11.50;99.90
13798;DHT22;6970;51.340;3.240;2023-05-02T03:37:57;11.60;99.90
13798;DHT22;6970;51.340;3.240;2023-05-02T03:40:25;11.60;99.90
13798;DHT22;6970;51.340;3.240;2023-05-02T03:42:53;11.60;99.90
13798;DHT22;6970;51.340;3.240;2023-05-02T03:45:20;11.60;99.90
13798;DHT22;6970;51.340;3.240;2023-05-02T03:47:47;11.60;99.90
13798;DHT22;6970;51.340;3.240;2023-05-02T03:50:14;11.60;99.90
13798;DHT22;6970;51.340;3.240;2023-05-02T03:52:41;11.70;99.90
13798;DHT22;6970;51.340;3.240;2023-05-02T03:55:14;11.60;99.90
13798;DHT22;6970;51.340;3.240;2023-05-02T03:57:41;11.60;99.90
13798;DHT22;6970;51.340;3.240;2023-05-02T04:00:09;11.60;99.90
13798;DHT22;6970;51.340;3.240;2023-05-02T04:02:36;11.60;99.90
13798;DHT22;6970;51.340;3.240;2023-05-02T04:05:04;11.60;99.90
13798;DHT22;6970;51.340;3.240;2023-05-02T04:07:31;11.60;99.90
13798;DHT22;6970;51.340;3.240;2023-05-02T04:09:58;11.60;99.90
13798;DHT22;6970;51.340;3.240;2023-05-02T04:12:25;11.50;99.90
13798;DHT22;6970;51.340;3.240;2023-05-02T04:14:52;11.50;99.90
13798;DHT22;6970;51.340;3.240;2023-05-02T04:17:20;11.50;99.90
13798;DHT22;6970;51.340;3.240;2023-05-02T04:19:47;11.50;99.90
13798;DHT22;6970;51.340;3.240;2023-05-02T04:22:14;11.50;99.90
13798;DHT22;6970;51.340;3.240;2023-05-02T04:24:41;11.50;99.90
13798;DHT22;6970;51.340;3.240;2023-05-02T04:27:08;11.50;99.90
13798;DHT22;6970;51.340;3.240;2023-05-02T04:29:37;11.50;99.90
13798;DHT22;6970;51.340;3.240;2023-05-02T04:32:04;11.50;99.90
13798;DHT22;6970;51.340;3.240;2023-05-02T04:34:32;11.50;99.90
13798;DHT22;6970;51.340;3.240;2023-05-02T04:37:00;11.50;99.90
13798;DHT22;6970;51.340;3.240;2023-05-02T04:39:27;11.50;99.90
13798;DHT22;6970;51.340;3.240;2023-05-02T04:41:54;11.50;99.90
13798;DHT22;6970;51.340;3.240;2023-05-02T04:44:21;11.50;99.90
13798;DHT22;6970;51.340;3.240;2023-05-02T04:46:48;11.50;99.90
13798;DHT22;6970;51.340;3.240;2023-05-02T04:49:15;11.50;99.90
13798;DHT22;6970;51.340;3.240;2023-05-02T04:51:43;11.60;99.90
13798;DHT22;6970;51.340;3.240;2023-05-02T04:54:11;11.50;99.90
13798;DHT22;6970;51.340;3.240;2023-05-02T04:56:38;11.50;99.90
13798;DHT22;6970;51.340;3.240;2023-05-02T04:59:05;11.50;99.90
13798;DHT22;6970;51.340;3.240;2023-05-02T05:01:32;11.60;99.90
13798;DHT22;6970;51.340;3.240;2023-05-02T05:03:59;11.50;99.90
13798;DHT22;6970;51.340;3.240;2023-05-02T05:06:27;11.50;99.90
13798;DHT22;6970;51.340;3.240;2023-05-02T05:08:54;11.50;99.90
13798;DHT22;6970;51.340;3.240;2023-05-02T05:11:21;11.60;99.90
13798;DHT22;6970;51.340;3.240;2023-05-02T05:13:49;11.50;99.90
13798;DHT22;6970;51.340;3.240;2023-05-02T05:16:16;11.50;99.90
13798;DHT22;6970;51.340;3.240;2023-05-02T05:18:43;11.50;99.90
13798;DHT22;6970;51.340;3.240;2023-05-02T05:21:10;11.50;99.90
13798;DHT22;6970;51.340;3.240;2023-05-02T05:23:37;11.40;99.90
13798;DHT22;6970;51.340;3.240;2023-05-02T05:26:08;11.40;99.90
13798;DHT22;6970;51.340;3.240;2023-05-02T05:28:36;11.50;99.90
13798;DHT22;6970;51.340;3.240;2023-05-02T05:31:06;11.50;99.90
13798;DHT22;6970;51.340;3.240;2023-05-02T05:33:34;11.50;99.90
13798;DHT22;6970;51.340;3.240;2023-05-02T05:36:10;11.60;99.90
13798;DHT22;6970;51.340;3.240;2023-05-02T05:38:40;11.60;99.90
13798;DHT22;6970;51.340;3.240;2023-05-02T05:41:07;11.60;99.90
13798;DHT22;6970;51.340;3.240;2023-05-02T05:43:35;11.60;99.90
13798;DHT22;6970;51.340;3.240;2023-05-02T05:46:04;11.60;99.90
13798;DHT22;6970;51.340;3.240;2023-05-02T05:48:32;11.60;99.90
13798;DHT22;6970;51.340;3.240;2023-05-02T05:51:04;11.60;99.90
13798;DHT22;6970;51.340;3.240;2023-05-02T05:53:31;11.60;99.90
13798;DHT22;6970;51.340;3.240;2023-05-02T05:56:06;11.60;99.90
13798;DHT22;6970;51.340;3.240;2023-05-02T05:58:33;11.60;99.90
13798;DHT22;6970;51.340;3.240;2023-05-02T06:01:02;11.60;99.90
13798;DHT22;6970;51.340;3.240;2023-05-02T06:03:29;11.60;99.90
13798;DHT22;6970;51.340;3.240;2023-05-02T06:05:56;11.60;99.90
13798;DHT22;6970;51.340;3.240;2023-05-02T06:08:24;11.60;99.90
13798;DHT22;6970;51.340;3.240;2023-05-02T06:10:51;11.60;99.90
13798;DHT22;6970;51.340;3.240;2023-05-02T06:13:18;11.70;99.90
13798;DHT22;6970;51.340;3.240;2023-05-02T06:15:45;11.70;99.90
13798;DHT22;6970;51.340;3.240;2023-05-02T06:18:12;11.80;99.90
13798;DHT22;6970;51.340;3.240;2023-05-02T06:20:40;11.90;99.90
13798;DHT22;6970;51.340;3.240;2023-05-02T06:23:07;11.90;99.90
13798;DHT22;6970;51.340;3.240;2023-05-02T06:25:36;11.90;99.90
13798;DHT22;6970;51.340;3.240;2023-05-02T06:28:03;11.90;99.90
13798;DHT22;6970;51.340;3.240;2023-05-02T06:30:31;11.90;99.90
13798;DHT22;6970;51.340;3.240;2023-05-02T06:32:58;11.90;99.90
13798;DHT22;6970;51.340;3.240;2023-05-02T06:35:25;11.90;99.90
13798;DHT22;6970;51.340;3.240;2023-05-02T06:37:52;12.00;99.90
13798;DHT22;6970;51.340;3.240;2023-05-02T06:40:19;12.10;99.90
13798;DHT22;6970;51.340;3.240;2023-05-02T06:42:46;12.20;99.90
13798;DHT22;6970;51.340;3.240;2023-05-02T06:45:13;12.20;99.90
13798;DHT22;6970;51.340;3.240;2023-05-02T06:47:41;12.20;99.90
13798;DHT22;6970;51.340;3.240;2023-05-02T06:50:09;12.30;99.90
13798;DHT22;6970;51.340;3.240;2023-05-02T06:52:37;12.40;99.90
13798;DHT22;6970;51.340;3.240;2023-05-02T06:55:05;12.70;99.90
13798;DHT22;6970;51.340;3.240;2023-05-02T06:57:32;12.90;99.90
13798;DHT22;6970;51.340;3.240;2023-05-02T06:59:59;13.20;99.90
13798;DHT22;6970;51.340;3.240;2023-05-02T07:02:28;13.40;99.90
13798;DHT22;6970;51.340;3.240;2023-05-02T07:04:55;13.60;99.90
13798;DHT22;6970;51.340;3.240;2023-05-02T07:07:22;13.80;99.90
13798;DHT22;6970;51.340;3.240;2023-05-02T07:09:49;13.90;99.90
13798;DHT22;6970;51.340;3.240;2023-05-02T07:12:16;13.90;99.90
13798;DHT22;6970;51.340;3.240;2023-05-02T07:14:43;13.90;99.90
13798;DHT22;6970;51.340;3.240;2023-05-02T07:17:12;14.10;99.90
13798;DHT22;6970;51.340;3.240;2023-05-02T07:19:39;14.40;99.90
13798;DHT22;6970;51.340;3.240;2023-05-02T07:22:10;14.40;99.90
13798;DHT22;6970;51.340;3.240;2023-05-02T07:24:41;14.40;99.90
13798;DHT22;6970;51.340;3.240;2023-05-02T07:27:09;14.40;99.90
13798;DHT22;6970;51.340;3.240;2023-05-02T07:29:36;14.40;99.90
13798;DHT22;6970;51.340;3.240;2023-05-02T07:32:04;14.50;99.90
13798;DHT22;6970;51.340;3.240;2023-05-02T07:34:32;14.70;99.90
13798;DHT22;6970;51.340;3.240;2023-05-02T07:36:59;14.70;99.90
13798;DHT22;6970;51.340;3.240;2023-05-02T07:39:26;14.90;99.90
13798;DHT22;6970;51.340;3.240;2023-05-02T07:41:53;14.90;99.90
13798;DHT22;6970;51.340;3.240;2023-05-02T07:44:20;15.00;99.90
13798;DHT22;6970;51.340;3.240;2023-05-02T07:46:48;14.90;99.90
13798;DHT22;6970;51.340;3.240;2023-05-02T07:49:15;14.90;99.90
13798;DHT22;6970;51.340;3.240;2023-05-02T07:51:42;14.90;99.90
13798;DHT22;6970;51.340;3.240;2023-05-02T07:54:15;15.00;99.90
13798;DHT22;6970;51.340;3.240;2023-05-02T07:56:43;15.20;99.90
13798;DHT22;6970;51.340;3.240;2023-05-02T07:59:11;15.40;99.90
13798;DHT22;6970;51.340;3.240;2023-05-02T08:01:41;15.70;99.90
13798;DHT22;6970;51.340;3.240;2023-05-02T08:04:08;15.90;99.90
13798;DHT22;6970;51.340;3.240;2023-05-02T08:06:42;16.00;99.90
13798;DHT22;6970;51.340;3.240;2023-05-02T08:09:10;16.20;99.90
13798;DHT22;6970;51.340;3.240;2023-05-02T08:11:37;16.50;99.60
13798;DHT22;6970;51.340;3.240;2023-05-02T08:14:04;16.80;99.30
13798;DHT22;6970;51.340;3.240;2023-05-02T08:16:31;17.20;98.50
13798;DHT22;6970;51.340;3.240;2023-05-02T08:18:58;17.60;97.80
13798;DHT22;6970;51.340;3.240;2023-05-02T08:21:25;17.90;96.60
13798;DHT22;6970;51.340;3.240;2023-05-02T08:23:57;18.00;95.00
13798;DHT22;6970;51.340;3.240;2023-05-02T08:26:25;17.90;94.60
13798;DHT22;6970;51.340;3.240;2023-05-02T08:28:53;17.90;94.50
13798;DHT22;6970;51.340;3.240;2023-05-02T08:31:21;18.00;94.70
13798;DHT22;6970;51.340;3.240;2023-05-02T08:33:48;18.00;94.40
13798;DHT22;6970;51.340;3.240;2023-05-02T08:36:16;18.20;94.60
13798;DHT22;6970;51.340;3.240;2023-05-02T08:38:45;18.20;93.80
13798;DHT22;6970;51.340;3.240;2023-05-02T08:41:16;18.20;93.90
13798;DHT22;6970;51.340;3.240;2023-05-02T08:43:46;18.20;93.80
13798;DHT22;6970;51.340;3.240;2023-05-02T08:46:15;18.20;94.20
13798;DHT22;6970;51.340;3.240;2023-05-02T08:48:46;18.40;94.20
13798;DHT22;6970;51.340;3.240;2023-05-02T08:51:19;18.50;93.70
13798;DHT22;6970;51.340;3.240;2023-05-02T08:53:52;18.60;93.60
13798;DHT22;6970;51.340;3.240;2023-05-02T08:56:20;18.70;93.20
13798;DHT22;6970;51.340;3.240;2023-05-02T08:58:47;18.70;93.50
13798;DHT22;6970;51.340;3.240;2023-05-02T09:01:16;18.70;93.20
13798;DHT22;6970;51.340;3.240;2023-05-02T09:03:46;18.80;93.10
13798;DHT22;6970;51.340;3.240;2023-05-02T09:08:42;19.00;92.50
13798;DHT22;6970;51.340;3.240;2023-05-02T09:11:10;19.00;92.50
13798;DHT22;6970;51.340;3.240;2023-05-02T09:13:39;19.10;92.30
13798;DHT22;6970;51.340;3.240;2023-05-02T09:16:12;19.10;92.10
13798;DHT22;6970;51.340;3.240;2023-05-02T09:18:41;19.10;91.80
13798;DHT22;6970;51.340;3.240;2023-05-02T09:21:14;19.20;91.60
13798;DHT22;6970;51.340;3.240;2023-05-02T09:23:50;19.30;91.50
13798;DHT22;6970;51.340;3.240;2023-05-02T09:26:25;19.50;91.20
13798;DHT22;6970;51.340;3.240;2023-05-02T09:28:57;19.60;91.00
13798;DHT22;6970;51.340;3.240;2023-05-02T09:31:34;19.70;90.40
13798;DHT22;6970;51.340;3.240;2023-05-02T09:34:17;19.70;90.20
13798;DHT22;6970;51.340;3.240;2023-05-02T09:36:47;19.90;89.90
13798;DHT22;6970;51.340;3.240;2023-05-02T09:39:18;19.90;89.40
13798;DHT22;6970;51.340;3.240;2023-05-02T09:41:47;19.90;89.00
13798;DHT22;6970;51.340;3.240;2023-05-02T09:44:16;20.00;88.90
13798;DHT22;6970;51.340;3.240;2023-05-02T09:46:51;20.20;89.20
13798;DHT22;6970;51.340;3.240;2023-05-02T09:49:24;20.20;88.50
13798;DHT22;6970;51.340;3.240;2023-05-02T09:52:15;20.30;89.10
13798;DHT22;6970;51.340;3.240;2023-05-02T09:54:43;20.50;88.90
13798;DHT22;6970;51.340;3.240;2023-05-02T09:57:13;20.60;87.90
13798;DHT22;6970;51.340;3.240;2023-05-02T09:59:40;20.80;87.60
13798;DHT22;6970;51.340;3.240;2023-05-02T10:02:08;20.90;86.90
13798;DHT22;6970;51.340;3.240;2023-05-02T10:04:38;20.80;86.20
13798;DHT22;6970;51.340;3.240;2023-05-02T10:07:06;20.80;85.20
13798;DHT22;6970;51.340;3.240;2023-05-02T10:09:41;20.90;85.60
13798;DHT22;6970;51.340;3.240;2023-05-02T10:12:08;20.90;85.30
13798;DHT22;6970;51.340;3.240;2023-05-02T10:14:39;20.90;85.40
13798;DHT22;6970;51.340;3.240;2023-05-02T10:17:21;20.90;86.30
13798;DHT22;6970;51.340;3.240;2023-05-02T10:20:02;20.90;86.20
13798;DHT22;6970;51.340;3.240;2023-05-02T10:22:30;21.00;85.30
13798;DHT22;6970;51.340;3.240;2023-05-02T10:24:59;21.10;85.00
13798;DHT22;6970;51.340;3.240;2023-05-02T10:27:29;21.20;84.10
13798;DHT22;6970;51.340;3.240;2023-05-02T10:29:59;21.30;82.80
13798;DHT22;6970;51.340;3.240;2023-05-02T10:32:33;21.30;82.80
13798;DHT22;6970;51.340;3.240;2023-05-02T10:35:05;21.40;82.00
13798;DHT22;6970;51.340;3.240;2023-05-02T10:37:44;21.60;82.00
13798;DHT22;6970;51.340;3.240;2023-05-02T10:40:17;21.70;81.70
13798;DHT22;6970;51.340;3.240;2023-05-02T10:42:47;21.70;81.20
13798;DHT22;6970;51.340;3.240;2023-05-02T10:45:34;21.80;81.10
13798;DHT22;6970;51.340;3.240;2023-05-02T10:48:21;21.80;80.40
13798;DHT22;6970;51.340;3.240;2023-05-02T10:50:56;22.00;80.10
13798;DHT22;6970;51.340;3.240;2023-05-02T10:58:51;22.10;78.90
13798;DHT22;6970;51.340;3.240;2023-05-02T11:04:06;22.00;79.70
13798;DHT22;6970;51.340;3.240;2023-05-02T11:09:31;22.20;78.00
13798;DHT22;6970;51.340;3.240;2023-05-02T11:11:59;22.20;78.20
13798;DHT22;6970;51.340;3.240;2023-05-02T11:14:42;22.20;78.00
13798;DHT22;6970;51.340;3.240;2023-05-02T11:17:12;22.20;77.20
13798;DHT22;6970;51.340;3.240;2023-05-02T11:24:49;22.10;76.80
13798;DHT22;6970;51.340;3.240;2023-05-02T11:30:08;22.30;75.50
13798;DHT22;6970;51.340;3.240;2023-05-02T11:35:25;22.20;76.60
13798;DHT22;6970;51.340;3.240;2023-05-02T11:38:10;22.20;76.20
13798;DHT22;6970;51.340;3.240;2023-05-02T11:40:39;22.20;75.90
13798;DHT22;6970;51.340;3.240;2023-05-02T11:43:18;22.30;75.50
13798;DHT22;6970;51.340;3.240;2023-05-02T11:45:47;22.20;75.00
13798;DHT22;6970;51.340;3.240;2023-05-02T11:48:18;22.10;75.50
13798;DHT22;6970;51.340;3.240;2023-05-02T11:50:47;22.20;75.40
13798;DHT22;6970;51.340;3.240;2023-05-02T11:53:26;22.20;74.90
13798;DHT22;6970;51.340;3.240;2023-05-02T11:56:01;22.00;75.10
13798;DHT22;6970;51.340;3.240;2023-05-02T11:58:30;21.90;75.80
13798;DHT22;6970;51.340;3.240;2023-05-02T12:01:13;22.00;76.10
13798;DHT22;6970;51.340;3.240;2023-05-02T12:03:41;22.00;75.60
13798;DHT22;6970;51.340;3.240;2023-05-02T12:06:16;21.80;74.10
13798;DHT22;6970;51.340;3.240;2023-05-02T12:08:46;21.60;75.00
13798;DHT22;6970;51.340;3.240;2023-05-02T12:11:15;21.60;75.10
13798;DHT22;6970;51.340;3.240;2023-05-02T12:13:48;21.60;75.30
13798;DHT22;6970;51.340;3.240;2023-05-02T12:16:17;21.50;75.60
13798;DHT22;6970;51.340;3.240;2023-05-02T12:18:45;21.60;75.80
13798;DHT22;6970;51.340;3.240;2023-05-02T12:21:12;21.60;75.50
13798;DHT22;6970;51.340;3.240;2023-05-02T12:23:40;21.50;75.20
13798;DHT22;6970;51.340;3.240;2023-05-02T12:26:18;21.60;75.60
13798;DHT22;6970;51.340;3.240;2023-05-02T12:28:50;21.70;74.50
13798;DHT22;6970;51.340;3.240;2023-05-02T12:31:17;21.50;73.80
13798;DHT22;6970;51.340;3.240;2023-05-02T12:33:46;21.50;74.40
13798;DHT22;6970;51.340;3.240;2023-05-02T12:36:18;21.40;75.00
13798;DHT22;6970;51.340;3.240;2023-05-02T12:38:50;21.40;75.00
13798;DHT22;6970;51.340;3.240;2023-05-02T12:41:37;21.40;74.80
13798;DHT22;6970;51.340;3.240;2023-05-02T12:44:05;21.30;74.40
13798;DHT22;6970;51.340;3.240;2023-05-02T12:46:33;21.20;74.90
13798;DHT22;6970;51.340;3.240;2023-05-02T12:51:29;20.80;76.10
13798;DHT22;6970;51.340;3.240;2023-05-02T12:53:57;20.70;76.90
13798;DHT22;6970;51.340;3.240;2023-05-02T12:56:24;20.60;77.40
13798;DHT22;6970;51.340;3.240;2023-05-02T12:58:58;20.50;76.90
13798;DHT22;6970;51.340;3.240;2023-05-02T13:01:32;20.50;78.60
13798;DHT22;6970;51.340;3.240;2023-05-02T13:04:03;20.50;78.40
13798;DHT22;6970;51.340;3.240;2023-05-02T13:06:31;20.40;78.60
13798;DHT22;6970;51.340;3.240;2023-05-02T13:08:58;20.30;79.30
13798;DHT22;6970;51.340;3.240;2023-05-02T13:11:26;20.10;79.00
13798;DHT22;6970;51.340;3.240;2023-05-02T13:13:53;20.10;79.30
13798;DHT22;6970;51.340;3.240;2023-05-02T13:16:20;20.00;78.80
13798;DHT22;6970;51.340;3.240;2023-05-02T13:18:48;19.90;79.40
13798;DHT22;6970;51.340;3.240;2023-05-02T13:21:15;19.90;79.60
13798;DHT22;6970;51.340;3.240;2023-05-02T13:23:42;19.90;79.70
13798;DHT22;6970;51.340;3.240;2023-05-02T13:26:10;19.90;79.20
13798;DHT22;6970;51.340;3.240;2023-05-02T13:28:37;20.00;79.00
13798;DHT22;6970;51.340;3.240;2023-05-02T13:31:04;20.10;79.00
13798;DHT22;6970;51.340;3.240;2023-05-02T13:33:31;20.20;78.50
13798;DHT22;6970;51.340;3.240;2023-05-02T13:35:58;20.30;79.40
13798;DHT22;6970;51.340;3.240;2023-05-02T13:38:25;20.40;79.00
13798;DHT22;6970;51.340;3.240;2023-05-02T13:40:52;20.30;78.90
13798;DHT22;6970;51.340;3.240;2023-05-02T13:43:20;20.20;78.50
13798;DHT22;6970;51.340;3.240;2023-05-02T13:45:47;20.10;79.50
13798;DHT22;6970;51.340;3.240;2023-05-02T13:48:14;20.10;79.30
13798;DHT22;6970;51.340;3.240;2023-05-02T13:50:42;19.90;79.40
13798;DHT22;6970;51.340;3.240;2023-05-02T13:53:09;19.80;79.70
13798;DHT22;6970;51.340;3.240;2023-05-02T13:55:36;19.70;80.50
13798;DHT22;6970;51.340;3.240;2023-05-02T13:58:03;19.60;80.60
13798;DHT22;6970;51.340;3.240;2023-05-02T14:00:31;19.50;81.20
13798;DHT22;6970;51.340;3.240;2023-05-02T14:02:58;19.40;81.10
13798;DHT22;6970;51.340;3.240;2023-05-02T14:05:25;19.40;81.30
13798;DHT22;6970;51.340;3.240;2023-05-02T14:07:52;19.40;80.50
13798;DHT22;6970;51.340;3.240;2023-05-02T14:10:19;19.30;80.20
13798;DHT22;6970;51.340;3.240;2023-05-02T14:12:46;19.10;80.50
13798;DHT22;6970;51.340;3.240;2023-05-02T14:15:13;18.90;80.60
13798;DHT22;6970;51.340;3.240;2023-05-02T14:17:40;18.80;81.30
13798;DHT22;6970;51.340;3.240;2023-05-02T14:20:08;18.80;81.80
13798;DHT22;6970;51.340;3.240;2023-05-02T14:22:36;18.80;81.80
13798;DHT22;6970;51.340;3.240;2023-05-02T14:25:03;18.70;82.30
13798;DHT22;6970;51.340;3.240;2023-05-02T14:27:31;18.60;82.40
13798;DHT22;6970;51.340;3.240;2023-05-02T14:29:58;18.50;83.10
13798;DHT22;6970;51.340;3.240;2023-05-02T14:32:26;18.50;82.00
13798;DHT22;6970;51.340;3.240;2023-05-02T14:34:53;18.40;82.00
13798;DHT22;6970;51.340;3.240;2023-05-02T14:37:20;18.40;82.30
13798;DHT22;6970;51.340;3.240;2023-05-02T14:39:47;18.30;82.40
13798;DHT22;6970;51.340;3.240;2023-05-02T14:42:24;18.30;82.30
13798;DHT22;6970;51.340;3.240;2023-05-02T14:44:51;18.20;82.90
13798;DHT22;6970;51.340;3.240;2023-05-02T14:47:18;18.30;82.40
13798;DHT22;6970;51.340;3.240;2023-05-02T14:49:45;18.30;81.90
13798;DHT22;6970;51.340;3.240;2023-05-02T14:52:12;18.30;81.90
13798;DHT22;6970;51.340;3.240;2023-05-02T14:54:39;18.20;81.60
13798;DHT22;6970;51.340;3.240;2023-05-02T14:57:06;18.10;81.90
13798;DHT22;6970;51.340;3.240;2023-05-02T14:59:34;18.00;82.30
13798;DHT22;6970;51.340;3.240;2023-05-02T15:02:01;18.00;82.60
13798;DHT22;6970;51.340;3.240;2023-05-02T15:04:29;18.00;83.20
13798;DHT22;6970;51.340;3.240;2023-05-02T15:07:02;18.00;83.00
13798;DHT22;6970;51.340;3.240;2023-05-02T15:09:29;18.00;83.10
13798;DHT22;6970;51.340;3.240;2023-05-02T15:11:57;18.00;83.30
13798;DHT22;6970;51.340;3.240;2023-05-02T15:14:24;17.80;83.30
13798;DHT22;6970;51.340;3.240;2023-05-02T15:16:51;17.70;84.40
13798;DHT22;6970;51.340;3.240;2023-05-02T15:19:18;17.40;85.00
13798;DHT22;6970;51.340;3.240;2023-05-02T15:21:45;17.30;85.90
13798;DHT22;6970;51.340;3.240;2023-05-02T15:24:12;17.10;86.60
13798;DHT22;6970;51.340;3.240;2023-05-02T15:26:39;17.10;87.10
13798;DHT22;6970;51.340;3.240;2023-05-02T15:29:06;17.00;87.60
13798;DHT22;6970;51.340;3.240;2023-05-02T15:31:33;16.80;87.50
13798;DHT22;6970;51.340;3.240;2023-05-02T15:34:00;16.80;88.10
13798;DHT22;6970;51.340;3.240;2023-05-02T15:36:28;16.70;88.00
13798;DHT22;6970;51.340;3.240;2023-05-02T15:38:58;16.60;88.00
13798;DHT22;6970;51.340;3.240;2023-05-02T15:41:25;16.60;88.60
13798;DHT22;6970;51.340;3.240;2023-05-02T15:43:53;16.50;88.50
13798;DHT22;6970;51.340;3.240;2023-05-02T15:46:20;16.40;88.80
13798;DHT22;6970;51.340;3.240;2023-05-02T15:48:47;16.30;88.70
13798;DHT22;6970;51.340;3.240;2023-05-02T15:51:14;16.20;88.90
13798;DHT22;6970;51.340;3.240;2023-05-02T15:53:42;16.20;89.00
13798;DHT22;6970;51.340;3.240;2023-05-02T15:56:11;16.10;89.20
13798;DHT22;6970;51.340;3.240;2023-05-02T15:58:38;16.10;89.60
13798;DHT22;6970;51.340;3.240;2023-05-02T16:01:06;16.00;89.90
13798;DHT22;6970;51.340;3.240;2023-05-02T16:03:33;15.90;89.60
13798;DHT22;6970;51.340;3.240;2023-05-02T16:06:00;15.80;89.50
13798;DHT22;6970;51.340;3.240;2023-05-02T16:08:28;15.70;90.00
13798;DHT22;6970;51.340;3.240;2023-05-02T16:10:54;15.60;90.10
13798;DHT22;6970;51.340;3.240;2023-05-02T16:13:22;15.70;90.30
13798;DHT22;6970;51.340;3.240;2023-05-02T16:15:49;15.70;90.40
13798;DHT22;6970;51.340;3.240;2023-05-02T16:18:18;15.60;90.30
13798;DHT22;6970;51.340;3.240;2023-05-02T16:20:45;15.50;90.20
13798;DHT22;6970;51.340;3.240;2023-05-02T16:23:13;15.30;90.50
13798;DHT22;6970;51.340;3.240;2023-05-02T16:25:41;15.20;90.70
13798;DHT22;6970;51.340;3.240;2023-05-02T16:28:08;15.10;90.80
13798;DHT22;6970;51.340;3.240;2023-05-02T16:30:35;15.00;90.80
13798;DHT22;6970;51.340;3.240;2023-05-02T16:33:03;15.00;91.00
13798;DHT22;6970;51.340;3.240;2023-05-02T16:35:30;14.90;91.20
13798;DHT22;6970;51.340;3.240;2023-05-02T16:37:58;14.80;91.20
13798;DHT22;6970;51.340;3.240;2023-05-02T16:40:28;14.70;91.20
13798;DHT22;6970;51.340;3.240;2023-05-02T16:42:56;14.60;91.60
13798;DHT22;6970;51.340;3.240;2023-05-02T16:45:23;14.50;91.50
13798;DHT22;6970;51.340;3.240;2023-05-02T16:47:50;14.50;91.60
13798;DHT22;6970;51.340;3.240;2023-05-02T16:50:18;14.40;91.80